createdAt,value
2022-08-24T00:00:11.825Z,16.60
2022-08-24T00:01:11.815Z,16.58
2022-08-24T00:02:12.187Z,16.56
2022-08-24T00:03:12.140Z,16.57
2022-08-24T00:04:11.789Z,16.61
2022-08-24T00:05:14.689Z,16.58
2022-08-24T00:06:11.782Z,16.60
2022-08-24T00:07:21.369Z,16.57
2022-08-24T00:08:11.745Z,16.51
2022-08-24T00:09:11.755Z,16.53
2022-08-24T00:10:11.727Z,16.58
2022-08-24T00:11:11.734Z,16.54
2022-08-24T00:12:11.827Z,16.56
2022-08-24T00:13:11.752Z,16.50
2022-08-24T00:14:11.708Z,16.51
2022-08-24T00:15:11.721Z,16.51
2022-08-24T00:16:11.747Z,16.46
2022-08-24T00:17:11.677Z,16.53
2022-08-24T00:18:11.701Z,16.47
2022-08-24T00:19:11.698Z,16.51
2022-08-24T00:20:11.673Z,16.46
2022-08-24T00:21:11.668Z,16.42
2022-08-24T00:22:11.657Z,16.35
2022-08-24T00:23:11.665Z,16.33
2022-08-24T00:24:11.659Z,16.24
2022-08-24T00:25:11.627Z,16.23
2022-08-24T00:26:11.649Z,16.21
2022-08-24T00:27:11.668Z,16.21
2022-08-24T00:28:11.631Z,16.13
2022-08-24T00:29:11.652Z,16.13
2022-08-24T00:30:11.639Z,16.08
2022-08-24T00:31:11.624Z,16.12
2022-08-24T00:32:11.614Z,16.04
2022-08-24T00:33:11.564Z,16.12
2022-08-24T00:34:11.583Z,16.10
2022-08-24T00:35:11.619Z,16.01
2022-08-24T00:36:11.567Z,16.02
2022-08-24T00:37:11.616Z,16.09
2022-08-24T00:38:11.597Z,16.17
2022-08-24T00:39:11.557Z,16.12
2022-08-24T00:40:11.751Z,16.08
2022-08-24T00:41:11.738Z,16.13
2022-08-24T00:42:11.540Z,16.15
2022-08-24T00:43:11.554Z,16.17
2022-08-24T00:44:11.556Z,16.09
2022-08-24T00:45:11.544Z,16.13
2022-08-24T00:46:11.615Z,16.00
2022-08-24T00:47:11.526Z,16.00
2022-08-24T00:48:11.511Z,16.00
2022-08-24T00:49:11.520Z,15.92
2022-08-24T00:50:11.482Z,15.95
2022-08-24T00:51:11.506Z,15.98
2022-08-24T00:52:11.502Z,16.00
2022-08-24T00:53:11.467Z,16.00
2022-08-24T00:54:11.445Z,16.01
2022-08-24T00:55:11.479Z,15.94
2022-08-24T00:56:11.459Z,15.95
2022-08-24T00:57:11.438Z,16.01
2022-08-24T00:58:16.969Z,16.05
2022-08-24T00:59:11.460Z,16.08
2022-08-24T01:00:11.453Z,16.02
2022-08-24T01:01:11.592Z,16.09
2022-08-24T01:02:15.082Z,16.13
2022-08-24T01:03:11.420Z,16.09
2022-08-24T01:04:11.417Z,16.12
2022-08-24T01:05:11.416Z,16.02
2022-08-24T01:06:11.389Z,16.10
2022-08-24T01:07:11.409Z,16.08
2022-08-24T01:08:11.416Z,16.05
2022-08-24T01:09:11.368Z,16.01
2022-08-24T01:10:11.407Z,15.98
2022-08-24T01:11:11.332Z,16.00
2022-08-24T01:12:11.388Z,16.02
2022-08-24T01:13:11.357Z,15.94
2022-08-24T01:14:11.343Z,15.91
2022-08-24T01:15:11.344Z,15.94
2022-08-24T01:16:11.357Z,15.91
2022-08-24T01:17:11.332Z,15.90
2022-08-24T01:18:11.311Z,15.88
2022-08-24T01:19:11.306Z,15.86
2022-08-24T01:20:11.305Z,15.91
2022-08-24T01:21:11.283Z,15.90
2022-08-24T01:22:11.292Z,15.88
2022-08-24T01:23:11.287Z,15.84
2022-08-24T01:24:11.294Z,15.90
2022-08-24T01:25:11.283Z,15.88
2022-08-24T01:26:11.828Z,15.88
2022-08-24T01:27:11.296Z,15.90
2022-08-24T01:28:11.250Z,15.91
2022-08-24T01:29:11.272Z,15.88
2022-08-24T01:30:11.230Z,15.88
2022-08-24T01:31:11.262Z,15.76
2022-08-24T01:32:11.260Z,15.86
2022-08-24T01:33:11.249Z,15.77
2022-08-24T01:34:11.244Z,15.82
2022-08-24T01:35:11.213Z,15.83
2022-08-24T01:36:11.192Z,15.77
2022-08-24T01:37:11.209Z,15.84
2022-08-24T01:38:11.185Z,15.84
2022-08-24T01:39:11.180Z,15.72
2022-08-24T01:40:11.227Z,15.73
2022-08-24T01:41:12.291Z,15.73
2022-08-24T01:42:11.178Z,15.64
2022-08-24T01:43:11.170Z,15.67
2022-08-24T01:44:11.198Z,15.61
2022-08-24T01:45:11.135Z,15.57
2022-08-24T01:46:11.268Z,15.54
2022-08-24T01:47:11.184Z,15.55
2022-08-24T01:48:11.149Z,15.47
2022-08-24T01:49:11.109Z,15.47
2022-08-24T01:50:11.145Z,15.52
2022-08-24T01:51:11.113Z,15.46
2022-08-24T01:52:11.120Z,15.52
2022-08-24T01:53:11.111Z,15.52
2022-08-24T01:54:11.091Z,15.52
2022-08-24T01:55:11.080Z,15.46
2022-08-24T01:56:11.089Z,15.54
2022-08-24T01:57:11.102Z,15.47
2022-08-24T01:58:11.055Z,15.46
2022-08-24T01:59:11.051Z,15.46
2022-08-24T02:00:11.056Z,15.51
2022-08-24T02:01:11.080Z,15.51
2022-08-24T02:02:11.135Z,15.47
2022-08-24T02:03:11.079Z,15.44
2022-08-24T02:04:11.026Z,15.40
2022-08-24T02:05:11.015Z,15.44
2022-08-24T02:06:11.035Z,15.42
2022-08-24T02:07:11.005Z,15.43
2022-08-24T02:08:11.023Z,15.35
2022-08-24T02:09:11.020Z,15.31
2022-08-24T02:10:10.997Z,15.31
2022-08-24T02:11:10.989Z,15.21
2022-08-24T02:12:10.992Z,15.33
2022-08-24T02:13:10.961Z,15.25
2022-08-24T02:14:10.954Z,15.29
2022-08-24T02:15:10.953Z,15.24
2022-08-24T02:16:11.045Z,15.35
2022-08-24T02:17:10.930Z,15.28
2022-08-24T02:18:14.940Z,15.19
2022-08-24T02:19:10.942Z,15.21
2022-08-24T02:20:10.965Z,15.25
2022-08-24T02:21:10.915Z,15.27
2022-08-24T02:22:10.940Z,15.27
2022-08-24T02:23:10.888Z,15.18
2022-08-24T02:24:10.923Z,15.22
2022-08-24T02:25:10.922Z,15.18
2022-08-24T02:26:10.910Z,15.27
2022-08-24T02:27:10.861Z,15.22
2022-08-24T02:28:10.897Z,15.27
2022-08-24T02:29:10.878Z,15.21
2022-08-24T02:30:10.863Z,15.22
2022-08-24T02:31:10.941Z,15.21
2022-08-24T02:32:10.853Z,15.18
2022-08-24T02:33:10.831Z,15.25
2022-08-24T02:34:10.890Z,15.25
2022-08-24T02:35:10.842Z,15.27
2022-08-24T02:36:26.102Z,15.25
2022-08-24T02:37:10.832Z,15.22
2022-08-24T02:38:10.821Z,15.19
2022-08-24T02:39:10.872Z,15.18
2022-08-24T02:40:10.890Z,15.22
2022-08-24T02:41:10.792Z,15.21
2022-08-24T02:42:11.003Z,15.10
2022-08-24T02:43:10.754Z,15.09
2022-08-24T02:44:10.816Z,15.14
2022-08-24T02:45:10.799Z,15.11
2022-08-24T02:46:13.730Z,15.07
2022-08-24T02:47:10.750Z,15.07
2022-08-24T02:48:10.768Z,15.14
2022-08-24T02:49:12.146Z,15.09
2022-08-24T02:50:10.739Z,15.09
2022-08-24T02:51:10.707Z,15.06
2022-08-24T02:52:10.761Z,15.14
2022-08-24T02:53:10.751Z,15.09
2022-08-24T02:54:10.703Z,15.10
2022-08-24T02:55:10.703Z,15.14
2022-08-24T02:56:10.690Z,15.14
2022-08-24T02:57:10.684Z,15.04
2022-08-24T02:58:10.685Z,15.04
2022-08-24T02:59:10.664Z,15.03
2022-08-24T03:00:10.877Z,15.11
2022-08-24T03:01:13.640Z,15.07
2022-08-24T03:02:10.744Z,15.00
2022-08-24T03:03:10.656Z,15.07
2022-08-24T03:04:10.691Z,15.06
2022-08-24T03:05:10.664Z,15.06
2022-08-24T03:06:10.661Z,15.00
2022-08-24T03:07:10.655Z,14.99
2022-08-24T03:08:10.844Z,14.99
2022-08-24T03:09:10.632Z,14.94
2022-08-24T03:10:10.645Z,14.94
2022-08-24T03:11:10.596Z,14.91
2022-08-24T03:12:10.790Z,14.88
2022-08-24T03:13:10.598Z,14.92
2022-08-24T03:14:10.573Z,14.89
2022-08-24T03:15:10.759Z,14.88
2022-08-24T03:16:10.656Z,14.86
2022-08-24T03:17:10.601Z,14.91
2022-08-24T03:18:10.583Z,14.85
2022-08-24T03:19:10.572Z,14.89
2022-08-24T03:20:10.564Z,14.81
2022-08-24T03:21:10.533Z,14.81
2022-08-24T03:22:10.549Z,14.82
2022-08-24T03:23:10.563Z,14.85
2022-08-24T03:24:10.516Z,14.65
2022-08-24T03:25:10.518Z,14.68
2022-08-24T03:26:10.486Z,14.73
2022-08-24T03:27:10.492Z,14.70
2022-08-24T03:28:11.237Z,14.69
2022-08-24T03:29:10.478Z,14.72
2022-08-24T03:30:10.503Z,14.70
2022-08-24T03:31:10.562Z,14.78
2022-08-24T03:32:10.468Z,14.66
2022-08-24T03:33:12.107Z,14.60
2022-08-24T03:34:10.471Z,14.63
2022-08-24T03:35:10.435Z,14.58
2022-08-24T03:36:14.061Z,14.63
2022-08-24T03:37:10.437Z,14.63
2022-08-24T03:38:10.447Z,14.72
2022-08-24T03:39:10.443Z,14.72
2022-08-24T03:40:22.185Z,14.68
2022-08-24T03:41:10.417Z,14.73
2022-08-24T03:42:10.426Z,14.69
2022-08-24T03:43:10.394Z,14.72
2022-08-24T03:44:10.401Z,14.66
2022-08-24T03:45:10.395Z,14.70
2022-08-24T03:46:10.434Z,14.77
2022-08-24T03:47:10.598Z,14.73
2022-08-24T03:48:10.348Z,14.68
2022-08-24T03:49:10.361Z,14.63
2022-08-24T03:50:10.424Z,14.66
2022-08-24T03:51:10.341Z,14.65
2022-08-24T03:52:10.349Z,14.62
2022-08-24T03:53:10.325Z,14.63
2022-08-24T03:54:10.330Z,14.68
2022-08-24T03:55:10.324Z,14.65
2022-08-24T03:56:10.341Z,14.66
2022-08-24T03:57:10.471Z,14.73
2022-08-24T03:58:10.396Z,14.72
2022-08-24T03:59:10.286Z,14.68
2022-08-24T04:00:10.292Z,14.68
2022-08-24T04:01:10.341Z,14.72
2022-08-24T04:02:10.323Z,14.77
2022-08-24T04:03:10.306Z,14.65
2022-08-24T04:04:10.296Z,14.69
2022-08-24T04:05:10.250Z,14.77
2022-08-24T04:06:11.899Z,14.77
2022-08-24T04:07:10.221Z,14.72
2022-08-24T04:08:10.218Z,14.65
2022-08-24T04:09:10.289Z,14.65
2022-08-24T04:10:10.210Z,14.65
2022-08-24T04:11:10.221Z,14.59
2022-08-24T04:12:10.610Z,14.63
2022-08-24T04:13:10.177Z,14.60
2022-08-24T04:14:12.185Z,14.58
2022-08-24T04:15:10.160Z,14.58
2022-08-24T04:16:10.222Z,14.62
2022-08-24T04:17:10.391Z,14.58
2022-08-24T04:18:10.164Z,14.47
2022-08-24T04:19:10.168Z,14.53
2022-08-24T04:20:10.137Z,14.54
2022-08-24T04:21:10.108Z,14.60
2022-08-24T04:22:10.137Z,14.55
2022-08-24T04:23:10.146Z,14.54
2022-08-24T04:24:10.092Z,14.60
2022-08-24T04:25:10.111Z,14.59
2022-08-24T04:26:10.093Z,14.59
2022-08-24T04:27:10.087Z,14.53
2022-08-24T04:28:10.080Z,14.55
2022-08-24T04:29:10.066Z,14.54
2022-08-24T04:30:10.078Z,14.60
2022-08-24T04:31:10.089Z,14.53
2022-08-24T04:32:10.178Z,14.60
2022-08-24T04:33:10.088Z,14.69
2022-08-24T04:34:10.052Z,14.70
2022-08-24T04:35:10.018Z,14.82
2022-08-24T04:36:10.047Z,14.92
2022-08-24T04:37:11.555Z,14.97
2022-08-24T04:38:10.020Z,15.00
2022-08-24T04:39:10.011Z,15.09
2022-08-24T04:40:10.072Z,15.21
2022-08-24T04:41:13.535Z,15.31
2022-08-24T04:42:09.986Z,15.40
2022-08-24T04:43:10.019Z,15.49
2022-08-24T04:44:09.997Z,15.59
2022-08-24T04:45:09.993Z,15.65
2022-08-24T04:46:10.034Z,15.59
2022-08-24T04:47:09.993Z,15.68
2022-08-24T04:48:09.968Z,15.76
2022-08-24T04:49:09.976Z,15.98
2022-08-24T04:50:09.916Z,16.13
2022-08-24T04:51:13.864Z,16.32
2022-08-24T04:52:09.937Z,16.38
2022-08-24T04:53:09.938Z,16.46
2022-08-24T04:54:09.911Z,16.46
2022-08-24T04:55:09.888Z,16.58
2022-08-24T04:56:09.902Z,16.74
2022-08-24T04:57:12.501Z,16.76
2022-08-24T04:58:09.876Z,16.79
2022-08-24T04:59:09.899Z,16.84
2022-08-24T05:00:09.875Z,16.97
2022-08-24T05:01:09.987Z,16.89
2022-08-24T05:02:09.968Z,16.83
2022-08-24T05:03:09.874Z,16.76
2022-08-24T05:04:09.845Z,16.72
2022-08-24T05:05:09.969Z,16.65
2022-08-24T05:06:09.867Z,16.65
2022-08-24T05:07:09.872Z,16.57
2022-08-24T05:08:09.868Z,16.50
2022-08-24T05:09:09.803Z,16.47
2022-08-24T05:10:10.031Z,16.42
2022-08-24T05:11:09.815Z,16.53
2022-08-24T05:12:09.846Z,16.47
2022-08-24T05:13:09.797Z,16.39
2022-08-24T05:14:11.157Z,16.46
2022-08-24T05:15:09.773Z,16.49
2022-08-24T05:16:09.873Z,16.50
2022-08-24T05:17:10.514Z,16.49
2022-08-24T05:18:09.768Z,16.50
2022-08-24T05:19:09.784Z,16.54
2022-08-24T05:20:09.762Z,16.54
2022-08-24T05:21:09.740Z,16.58
2022-08-24T05:22:10.074Z,16.57
2022-08-24T05:23:10.034Z,16.47
2022-08-24T05:24:09.731Z,16.54
2022-08-24T05:25:09.706Z,16.50
2022-08-24T05:26:09.703Z,16.33
2022-08-24T05:27:09.706Z,16.36
2022-08-24T05:28:09.708Z,16.33
2022-08-24T05:29:09.692Z,16.33
2022-08-24T05:30:09.731Z,16.32
2022-08-24T05:31:09.785Z,16.33
2022-08-24T05:32:09.692Z,16.24
2022-08-24T05:33:09.715Z,16.39
2022-08-24T05:34:09.676Z,16.43
2022-08-24T05:35:09.672Z,16.58
2022-08-24T05:36:09.657Z,16.46
2022-08-24T05:37:09.699Z,16.33
2022-08-24T05:38:09.681Z,16.23
2022-08-24T05:39:11.547Z,16.29
2022-08-24T05:40:09.673Z,16.33
2022-08-24T05:41:09.659Z,16.41
2022-08-24T05:42:09.655Z,16.41
2022-08-24T05:43:09.659Z,16.42
2022-08-24T05:44:09.654Z,16.39
2022-08-24T05:45:09.647Z,16.49
2022-08-24T05:46:09.655Z,16.57
2022-08-24T05:47:09.590Z,16.57
2022-08-24T05:48:09.614Z,16.66
2022-08-24T05:49:09.586Z,16.81
2022-08-24T05:50:09.565Z,16.84
2022-08-24T05:51:09.617Z,16.91
2022-08-24T05:52:09.589Z,16.96
2022-08-24T05:53:09.566Z,16.94
2022-08-24T05:54:09.572Z,16.86
2022-08-24T05:55:09.573Z,16.94
2022-08-24T05:56:09.556Z,16.99
2022-08-24T05:57:09.558Z,17.09
2022-08-24T05:58:10.850Z,17.22
2022-08-24T05:59:09.549Z,17.20
2022-08-24T06:00:09.941Z,17.22
2022-08-24T06:01:09.534Z,17.39
2022-08-24T06:02:09.668Z,17.48
2022-08-24T06:03:14.562Z,17.45
2022-08-24T06:04:09.523Z,17.52
2022-08-24T06:05:09.545Z,17.60
2022-08-24T06:06:09.476Z,17.60
2022-08-24T06:07:09.503Z,17.71
2022-08-24T06:08:09.483Z,17.68
2022-08-24T06:09:09.516Z,17.68
2022-08-24T06:10:34.805Z,17.83
2022-08-24T06:11:09.546Z,18.04
2022-08-24T06:12:09.456Z,17.97
2022-08-24T06:13:09.483Z,17.86
2022-08-24T06:14:09.468Z,17.71
2022-08-24T06:15:09.475Z,17.63
2022-08-24T06:16:21.929Z,17.51
2022-08-24T06:17:09.638Z,17.42
2022-08-24T06:18:09.534Z,17.51
2022-08-24T06:19:09.407Z,17.67
2022-08-24T06:20:09.449Z,17.92
2022-08-24T06:21:09.434Z,17.97
2022-08-24T06:22:09.492Z,18.05
2022-08-24T06:23:09.408Z,18.08
2022-08-24T06:24:09.394Z,18.01
2022-08-24T06:25:09.373Z,18.05
2022-08-24T06:26:14.698Z,17.97
2022-08-24T06:27:09.357Z,18.13
2022-08-24T06:28:09.379Z,18.20
2022-08-24T06:29:09.365Z,18.23
2022-08-24T06:30:09.352Z,18.26
2022-08-24T06:31:09.433Z,18.20
2022-08-24T06:32:09.355Z,18.33
2022-08-24T06:33:09.335Z,18.56
2022-08-24T06:34:09.373Z,18.58
2022-08-24T06:35:11.231Z,18.58
2022-08-24T06:36:09.343Z,18.40
2022-08-24T06:37:09.353Z,18.25
2022-08-24T06:38:09.336Z,18.33
2022-08-24T06:39:10.007Z,18.19
2022-08-24T06:40:09.369Z,18.33
2022-08-24T06:41:09.297Z,18.50
2022-08-24T06:42:09.324Z,18.62
2022-08-24T06:43:09.307Z,18.63
2022-08-24T06:44:09.294Z,18.59
2022-08-24T06:45:09.285Z,18.59
2022-08-24T06:46:09.376Z,18.75
2022-08-24T06:47:09.340Z,18.83
2022-08-24T06:48:09.267Z,19.00
2022-08-24T06:49:09.282Z,19.14
2022-08-24T06:50:09.287Z,18.98
2022-08-24T06:51:09.273Z,19.09
2022-08-24T06:52:09.476Z,19.27
2022-08-24T06:53:09.251Z,19.33
2022-08-24T06:54:09.259Z,19.45
2022-08-24T06:55:09.688Z,19.63
2022-08-24T06:56:09.227Z,19.66
2022-08-24T06:57:09.230Z,19.86
2022-08-24T06:58:09.228Z,19.91
2022-08-24T06:59:09.207Z,19.91
2022-08-24T07:00:09.217Z,19.92
2022-08-24T07:01:09.346Z,20.00
2022-08-24T07:02:09.490Z,19.99
2022-08-24T07:03:09.300Z,19.91
2022-08-24T07:04:09.179Z,19.70
2022-08-24T07:05:09.196Z,19.85
2022-08-24T07:06:09.207Z,19.95
2022-08-24T07:07:09.183Z,20.07
2022-08-24T07:08:09.190Z,20.10
2022-08-24T07:09:09.175Z,20.16
2022-08-24T07:10:09.178Z,20.34
2022-08-24T07:11:09.343Z,20.41
2022-08-24T07:12:09.188Z,20.55
2022-08-24T07:13:09.175Z,20.59
2022-08-24T07:14:09.181Z,20.60
2022-08-24T07:15:16.094Z,20.80
2022-08-24T07:16:09.263Z,20.88
2022-08-24T07:17:09.313Z,21.17
2022-08-24T07:18:09.139Z,21.33
2022-08-24T07:19:09.144Z,21.40
2022-08-24T07:20:09.141Z,21.51
2022-08-24T07:21:09.145Z,21.52
2022-08-24T07:22:09.136Z,21.42
2022-08-24T07:23:09.115Z,21.36
2022-08-24T07:24:09.132Z,21.42
2022-08-24T07:25:09.151Z,21.36
2022-08-24T07:26:09.100Z,21.35
2022-08-24T07:27:09.099Z,21.46
2022-08-24T07:28:10.210Z,21.39
2022-08-24T07:29:20.649Z,21.57
2022-08-24T07:30:27.498Z,21.76
2022-08-24T07:31:09.146Z,21.98
2022-08-24T07:32:09.102Z,22.06
2022-08-24T07:33:09.076Z,22.18
2022-08-24T07:34:09.065Z,22.33
2022-08-24T07:35:09.080Z,22.47
2022-08-24T07:36:09.065Z,22.38
2022-08-24T07:37:09.068Z,22.53
2022-08-24T07:38:09.082Z,22.33
2022-08-24T07:39:09.053Z,22.26
2022-08-24T07:40:09.099Z,22.33
2022-08-24T07:41:37.838Z,22.48
2022-08-24T07:42:13.806Z,22.65
2022-08-24T07:43:09.078Z,22.73
2022-08-24T07:44:09.044Z,22.59
2022-08-24T07:45:09.032Z,22.59
2022-08-24T07:46:09.164Z,22.72
2022-08-24T07:47:34.317Z,22.87
2022-08-24T07:48:11.674Z,22.99
2022-08-24T07:49:28.024Z,23.23
2022-08-24T07:50:09.008Z,23.36
2022-08-24T07:51:09.024Z,23.32
2022-08-24T07:52:09.017Z,23.20
2022-08-24T07:53:13.849Z,23.24
2022-08-24T07:54:13.020Z,23.43
2022-08-24T07:55:09.006Z,23.37
2022-08-24T07:56:09.009Z,23.34
2022-08-24T07:57:08.994Z,23.56
2022-08-24T07:58:09.001Z,23.68
2022-08-24T07:59:13.029Z,23.96
2022-08-24T08:00:08.991Z,24.26
2022-08-24T08:01:09.271Z,24.57
2022-08-24T08:02:09.152Z,24.81
2022-08-24T08:03:09.109Z,25.04
2022-08-24T08:04:09.059Z,24.92
2022-08-24T08:05:08.993Z,24.43
2022-08-24T08:06:13.767Z,24.36
2022-08-24T08:07:08.978Z,24.54
2022-08-24T08:08:08.971Z,24.81
2022-08-24T08:09:08.978Z,25.04
2022-08-24T08:10:08.975Z,25.14
2022-08-24T08:11:08.982Z,24.96
2022-08-24T08:12:08.982Z,24.81
2022-08-24T08:13:08.980Z,24.76
2022-08-24T08:14:08.995Z,24.51
2022-08-24T08:15:08.979Z,24.54
2022-08-24T08:16:09.134Z,24.38
2022-08-24T08:17:08.988Z,24.33
2022-08-24T08:18:08.988Z,24.57
2022-08-24T08:19:10.748Z,24.84
2022-08-24T08:20:08.988Z,24.91
2022-08-24T08:21:13.732Z,24.99
2022-08-24T08:22:09.194Z,25.01
2022-08-24T08:23:08.983Z,24.69
2022-08-24T08:24:08.985Z,24.38
2022-08-24T08:25:09.234Z,24.58
2022-08-24T08:26:08.987Z,24.86
2022-08-24T08:27:08.983Z,24.91
2022-08-24T08:28:25.109Z,25.16
2022-08-24T08:29:08.986Z,25.33
2022-08-24T08:30:08.989Z,25.38
2022-08-24T08:31:09.112Z,25.47
2022-08-24T08:32:08.991Z,25.58
2022-08-24T08:33:09.003Z,25.80
2022-08-24T08:34:08.990Z,26.15
2022-08-24T08:35:09.003Z,26.38
2022-08-24T08:36:08.996Z,26.38
2022-08-24T08:37:08.995Z,26.03
2022-08-24T08:38:09.086Z,26.09
2022-08-24T08:39:08.995Z,26.45
2022-08-24T08:40:09.071Z,26.80
2022-08-24T08:41:08.999Z,26.90
2022-08-24T08:42:09.032Z,26.63
2022-08-24T08:43:09.012Z,26.63
2022-08-24T08:44:08.999Z,26.80
2022-08-24T08:45:09.008Z,26.93
2022-08-24T08:46:09.070Z,27.27
2022-08-24T08:47:09.003Z,27.52
2022-08-24T08:48:09.017Z,27.30
2022-08-24T08:49:09.008Z,27.45
2022-08-24T08:50:09.182Z,27.51
2022-08-24T08:51:11.928Z,27.67
2022-08-24T08:52:09.015Z,27.77
2022-08-24T08:53:09.018Z,28.00
2022-08-24T08:54:09.007Z,27.70
2022-08-24T08:55:09.021Z,26.99
2022-08-24T08:56:09.008Z,26.90
2022-08-24T08:57:09.963Z,27.11
2022-08-24T08:58:09.014Z,27.59
2022-08-24T08:59:09.021Z,27.65
2022-08-24T09:00:09.013Z,27.33
2022-08-24T09:01:09.075Z,27.15
2022-08-24T09:02:09.020Z,27.15
2022-08-24T09:03:09.033Z,27.14
2022-08-24T09:04:09.058Z,27.35
2022-08-24T09:05:09.004Z,27.32
2022-08-24T09:06:09.362Z,26.92
2022-08-24T09:07:09.675Z,26.89
2022-08-24T09:09:09.351Z,27.26
2022-08-24T09:10:09.039Z,27.35
2022-08-24T09:11:09.008Z,27.45
2022-08-24T09:12:09.009Z,27.59
2022-08-24T09:13:09.007Z,27.78
2022-08-24T09:14:09.002Z,27.59
2022-08-24T09:15:09.012Z,27.73
2022-08-24T09:16:10.896Z,27.98
2022-08-24T09:17:12.888Z,28.10
2022-08-24T09:18:09.011Z,28.39
2022-08-24T09:19:09.001Z,28.48
2022-08-24T09:20:09.017Z,28.57
2022-08-24T09:21:09.001Z,28.39
2022-08-24T09:22:09.213Z,28.26
2022-08-24T09:23:09.033Z,28.15
2022-08-24T09:24:09.337Z,28.04
2022-08-24T09:25:09.018Z,28.05
2022-08-24T09:26:09.400Z,28.25
2022-08-24T09:27:09.019Z,28.49
2022-08-24T09:28:09.007Z,28.51
2022-08-24T09:29:09.006Z,28.44
2022-08-24T09:30:09.017Z,28.32
2022-08-24T09:31:09.433Z,28.30
2022-08-24T09:32:09.025Z,28.22
2022-08-24T09:33:09.012Z,28.45
2022-08-24T09:34:08.997Z,28.69
2022-08-24T09:35:08.996Z,29.02
2022-08-24T09:36:09.004Z,29.05
2022-08-24T09:37:09.087Z,29.10
2022-08-24T09:38:09.026Z,28.97
2022-08-24T09:39:09.053Z,29.32
2022-08-24T09:40:09.192Z,29.69
2022-08-24T09:41:08.994Z,30.06
2022-08-24T09:42:09.012Z,29.91
2022-08-24T09:43:09.057Z,29.60
2022-08-24T09:44:09.440Z,29.32
2022-08-24T09:45:09.209Z,29.38
2022-08-24T09:46:09.054Z,29.57
2022-08-24T09:47:09.464Z,29.61
2022-08-24T09:48:09.016Z,29.87
2022-08-24T09:49:13.603Z,30.03
2022-08-24T09:50:08.992Z,30.08
2022-08-24T09:51:08.990Z,30.18
2022-08-24T09:52:09.217Z,30.06
2022-08-24T09:53:09.031Z,30.31
2022-08-24T09:54:09.013Z,30.46
2022-08-24T09:55:09.006Z,30.63
2022-08-24T09:56:09.020Z,30.66
2022-08-24T09:57:12.367Z,30.51
2022-08-24T09:58:09.026Z,30.23
2022-08-24T09:59:09.010Z,29.73
2022-08-24T10:00:09.022Z,29.12
2022-08-24T10:01:09.090Z,28.72
2022-08-24T10:02:09.071Z,28.75
2022-08-24T10:03:09.014Z,28.96
2022-08-24T10:04:09.001Z,28.86
2022-08-24T10:05:09.115Z,28.76
2022-08-24T10:06:09.123Z,28.54
2022-08-24T10:07:09.012Z,28.67
2022-08-24T10:08:09.007Z,28.97
2022-08-24T10:09:09.024Z,28.98
2022-08-24T10:10:08.999Z,29.14
2022-08-24T10:11:08.998Z,28.89
2022-08-24T10:12:09.022Z,28.81
2022-08-24T10:13:09.035Z,28.81
2022-08-24T10:14:09.028Z,28.37
2022-08-24T10:15:09.003Z,28.19
2022-08-24T10:16:09.055Z,28.14
2022-08-24T10:17:09.004Z,28.29
2022-08-24T10:18:09.144Z,28.12
2022-08-24T10:19:09.014Z,28.52
2022-08-24T10:20:09.102Z,28.82
2022-08-24T10:21:09.056Z,29.02
2022-08-24T10:22:09.009Z,29.17
2022-08-24T10:23:09.013Z,29.54
2022-08-24T10:24:09.015Z,29.36
2022-08-24T10:25:09.011Z,29.39
2022-08-24T10:26:09.015Z,28.82
2022-08-24T10:27:08.999Z,28.52
2022-08-24T10:28:09.019Z,28.45
2022-08-24T10:29:09.168Z,28.26
2022-08-24T10:30:09.022Z,28.22
2022-08-24T10:31:12.716Z,28.12
2022-08-24T10:32:09.014Z,28.23
2022-08-24T10:33:09.054Z,28.02
2022-08-24T10:34:09.039Z,28.17
2022-08-24T10:35:09.008Z,28.25
2022-08-24T10:36:09.007Z,28.32
2022-08-24T10:37:09.016Z,28.26
2022-08-24T10:38:09.025Z,28.45
2022-08-24T10:39:09.020Z,28.66
2022-08-24T10:40:09.592Z,28.81
2022-08-24T10:41:09.019Z,28.93
2022-08-24T10:42:10.659Z,29.01
2022-08-24T10:43:09.070Z,28.98
2022-08-24T10:44:09.015Z,29.05
2022-08-24T10:45:09.098Z,29.04
2022-08-24T10:46:09.044Z,28.59
2022-08-24T10:47:09.011Z,28.52
2022-08-24T10:48:09.019Z,28.54
2022-08-24T10:49:09.184Z,28.66
2022-08-24T10:50:09.014Z,28.85
2022-08-24T10:51:09.000Z,28.94
2022-08-24T10:52:09.009Z,29.12
2022-08-24T10:53:09.203Z,29.16
2022-08-24T10:54:09.002Z,29.07
2022-08-24T10:55:09.284Z,29.19
2022-08-24T10:56:09.035Z,29.12
2022-08-24T10:57:12.281Z,28.78
2022-08-24T10:58:08.995Z,28.78
2022-08-24T10:59:09.002Z,29.02
2022-08-24T11:00:09.007Z,29.13
2022-08-24T11:01:09.394Z,29.14
2022-08-24T11:02:12.662Z,29.22
2022-08-24T11:03:09.269Z,29.08
2022-08-24T11:04:09.049Z,29.17
2022-08-24T11:05:09.244Z,29.26
2022-08-24T11:06:09.027Z,29.10
2022-08-24T11:07:09.376Z,28.96
2022-08-24T11:08:09.090Z,28.69
2022-08-24T11:09:09.260Z,28.79
2022-08-24T11:10:09.047Z,28.72
2022-08-24T11:11:09.128Z,28.74
2022-08-24T11:12:09.111Z,28.56
2022-08-24T11:13:09.170Z,28.17
2022-08-24T11:14:09.697Z,28.27
2022-08-24T11:15:09.565Z,28.49
2022-08-24T11:16:09.154Z,28.67
2022-08-24T11:17:08.992Z,28.48
2022-08-24T11:18:09.004Z,28.41
2022-08-24T11:19:08.995Z,28.52
2022-08-24T11:20:09.053Z,28.54
2022-08-24T11:21:09.063Z,28.57
2022-08-24T11:22:08.997Z,28.84
2022-08-24T11:23:09.012Z,29.08
2022-08-24T11:24:08.991Z,29.39
2022-08-24T11:25:08.986Z,29.65
2022-08-24T11:26:08.986Z,29.79
2022-08-24T11:27:08.990Z,29.73
2022-08-24T11:28:08.998Z,29.44
2022-08-24T11:29:08.988Z,29.49
2022-08-24T11:30:08.993Z,29.78
2022-08-24T11:31:09.045Z,29.19
2022-08-24T11:32:09.009Z,29.17
2022-08-24T11:33:08.994Z,29.31
2022-08-24T11:34:08.996Z,29.41
2022-08-24T11:35:09.000Z,29.41
2022-08-24T11:36:08.995Z,29.72
2022-08-24T11:37:09.049Z,29.68
2022-08-24T11:38:09.204Z,29.38
2022-08-24T11:39:09.020Z,29.35
2022-08-24T11:40:09.818Z,29.32
2022-08-24T11:41:09.001Z,29.22
2022-08-24T11:42:09.081Z,29.07
2022-08-24T11:43:09.003Z,29.13
2022-08-24T11:44:09.082Z,28.72
2022-08-24T11:45:08.989Z,28.86
2022-08-24T11:46:09.357Z,29.08
2022-08-24T11:47:09.005Z,29.24
2022-08-24T11:48:12.270Z,29.23
2022-08-24T11:49:09.012Z,29.08
2022-08-24T11:50:09.681Z,29.38
2022-08-24T11:51:09.011Z,29.22
2022-08-24T11:52:09.274Z,29.16
2022-08-24T11:53:12.712Z,28.96
2022-08-24T11:54:09.042Z,29.13
2022-08-24T11:55:09.070Z,29.13
2022-08-24T11:56:09.016Z,29.13
2022-08-24T11:57:09.025Z,29.13
2022-08-24T11:58:09.032Z,29.29
2022-08-24T11:59:09.009Z,29.20
2022-08-24T12:00:09.030Z,29.10
2022-08-24T12:01:09.032Z,29.01
2022-08-24T12:02:09.123Z,29.04
2022-08-24T12:03:09.119Z,28.94
2022-08-24T12:04:09.000Z,29.10
2022-08-24T12:05:09.001Z,29.17
2022-08-24T12:06:09.020Z,29.16
2022-08-24T12:07:09.086Z,28.85
2022-08-24T12:08:09.020Z,29.02
2022-08-24T12:09:09.296Z,29.12
2022-08-24T12:10:08.999Z,29.02
2022-08-24T12:11:09.227Z,28.89
2022-08-24T12:12:09.010Z,28.88
2022-08-24T12:13:09.453Z,29.02
2022-08-24T12:14:08.994Z,28.93
2022-08-24T12:15:09.342Z,28.94
2022-08-24T12:16:09.074Z,29.16
2022-08-24T12:17:09.411Z,29.29
2022-08-24T12:18:09.009Z,29.23
2022-08-24T12:19:09.150Z,29.32
2022-08-24T12:20:08.997Z,29.17
2022-08-24T12:21:12.669Z,29.13
2022-08-24T12:22:08.989Z,29.14
2022-08-24T12:23:09.014Z,29.10
2022-08-24T12:24:09.009Z,29.24
2022-08-24T12:25:09.014Z,29.02
2022-08-24T12:26:08.992Z,29.08
2022-08-24T12:27:09.170Z,29.23
2022-08-24T12:28:09.017Z,29.34
2022-08-24T12:29:09.002Z,29.31
2022-08-24T12:30:09.083Z,29.41
2022-08-24T12:31:09.043Z,29.45
2022-08-24T12:32:09.208Z,29.38
2022-08-24T12:33:08.993Z,29.13
2022-08-24T12:34:09.825Z,28.98
2022-08-24T12:35:08.994Z,29.08
2022-08-24T12:36:09.025Z,29.10
2022-08-24T12:37:16.033Z,29.17
2022-08-24T12:38:09.042Z,29.10
2022-08-24T12:39:09.010Z,29.13
2022-08-24T12:40:10.636Z,29.19
2022-08-24T12:41:18.997Z,29.31
2022-08-24T12:42:09.013Z,29.19
2022-08-24T12:43:09.001Z,29.29
2022-08-24T12:44:09.008Z,29.53
2022-08-24T12:45:09.011Z,29.59
2022-08-24T12:46:08.988Z,29.63
2022-08-24T12:47:09.023Z,29.56
2022-08-24T12:48:08.999Z,29.72
2022-08-24T12:49:08.982Z,29.69
2022-08-24T12:50:09.066Z,29.51
2022-08-24T12:51:08.998Z,29.22
2022-08-24T12:52:08.992Z,29.08
2022-08-24T12:53:13.321Z,29.02